Time;durP1;ratioP1;P1;durP2;ratioP2;P2;SDS_P1;SDS_P2;PMS_P1;PMS_P2;Temp;Humidity;BMP_temperature;BMP_pressure;BME280_temperature;BME280_humidity;BME280_pressure;Samples;Min_cycle;Max_cycle;Signal;HPM_P1;HPM_P2
2023/01/24 00:00:30;;;;;;;31.40;17.03;;;;;;;3.40;100.00;104126.97;5004885;28;20192;-80
2023/01/24 00:02:56;;;;;;;33.27;17.47;;;;;;;3.40;100.00;104121.03;5005502;28;20230;-79
2023/01/24 00:05:21;;;;;;;33.07;17.63;;;;;;;3.40;100.00;104119.38;5007611;28;20752;-79
2023/01/24 00:07:47;;;;;;;27.20;15.80;;;;;;;3.40;100.00;104116.84;5013578;28;20200;-79
2023/01/24 00:10:13;;;;;;;31.57;15.93;;;;;;;3.39;100.00;104120.13;5004155;28;20579;-78
2023/01/24 00:12:38;;;;;;;31.40;17.03;;;;;;;3.37;100.00;104115.66;5009875;28;20210;-79
2023/01/24 00:15:04;;;;;;;31.80;16.13;;;;;;;3.37;100.00;104115.66;5013101;28;20278;-79
2023/01/24 00:17:30;;;;;;;30.97;17.27;;;;;;;3.37;100.00;104121.63;4999926;28;20648;-78
2023/01/24 00:19:55;;;;;;;29.27;15.73;;;;;;;3.40;100.00;104119.38;5015289;28;20191;-79
2023/01/24 00:22:20;;;;;;;28.33;16.77;;;;;;;3.39;100.00;104114.16;5007532;28;20187;-79
2023/01/24 00:24:48;;;;;;;26.33;15.37;;;;;;;3.37;100.00;104108.97;5011105;28;20215;-79
2023/01/24 00:27:17;;;;;;;28.57;15.30;;;;;;;3.36;100.00;104103.75;5008120;28;20656;-79
2023/01/24 00:29:42;;;;;;;31.20;16.40;;;;;;;3.32;100.00;104105.06;5004759;28;20192;-78
2023/01/24 00:32:08;;;;;;;30.10;16.20;;;;;;;3.30;100.00;104111.63;5012979;28;20225;-78
2023/01/24 00:34:34;;;;;;;27.70;17.03;;;;;;;3.32;100.00;104112.66;5004835;28;20353;-78
2023/01/24 00:36:59;;;;;;;27.90;16.30;;;;;;;3.31;100.00;104104.94;5010753;28;20194;-78
2023/01/24 00:39:25;;;;;;;32.00;16.90;;;;;;;3.31;100.00;104103.28;5008063;28;20194;-78
2023/01/24 00:41:52;;;;;;;30.47;16.73;;;;;;;3.35;100.00;104107.91;4993111;28;20192;-78
2023/01/24 00:44:17;;;;;;;29.33;17.83;;;;;;;3.37;100.00;104103.00;5005062;28;20210;-78
2023/01/24 00:46:44;;;;;;;29.27;16.90;;;;;;;3.33;100.00;104095.84;5014703;28;20195;-78
2023/01/24 00:49:10;;;;;;;30.27;16.93;;;;;;;3.32;100.00;104092.41;5009905;28;20202;-78
2023/01/24 00:51:36;;;;;;;29.57;15.57;;;;;;;3.29;100.00;104089.56;4997717;28;20216;-78
2023/01/24 00:54:02;;;;;;;30.77;16.13;;;;;;;3.28;100.00;104086.88;5008903;28;20212;-77
2023/01/24 00:56:27;;;;;;;33.07;17.03;;;;;;;3.27;100.00;104085.97;5003281;28;20649;-78
2023/01/24 00:58:53;;;;;;;27.23;16.23;;;;;;;3.30;100.00;104087.91;5007225;28;20187;-79
2023/01/24 01:01:19;;;;;;;33.20;18.70;;;;;;;3.32;100.00;104083.94;5010447;28;20226;-79
2023/01/24 01:03:44;;;;;;;32.97;18.00;;;;;;;3.31;100.00;104080.47;5012621;28;20297;-78
2023/01/24 01:06:13;;;;;;;30.90;17.20;;;;;;;3.31;100.00;104084.66;5009042;28;20260;-78
2023/01/24 01:08:39;;;;;;;30.97;17.73;;;;;;;3.28;100.00;104084.34;5013510;28;20554;-79
2023/01/24 01:11:05;;;;;;;30.17;16.60;;;;;;;3.26;100.00;104085.84;5011228;28;20214;-79
2023/01/24 01:13:30;;;;;;;31.37;17.07;;;;;;;3.27;100.00;104087.63;5002162;28;20306;-78
2023/01/24 01:16:05;;;;;;;28.70;16.30;;;;;;;3.28;100.00;104094.47;5011807;28;20191;-79
2023/01/24 01:18:30;;;;;;;30.57;17.67;;;;;;;3.30;100.00;104088.81;5003399;28;20277;-78
2023/01/24 01:20:56;;;;;;;29.87;16.60;;;;;;;3.30;100.00;104092.97;5005324;28;20628;-78
2023/01/24 01:23:21;;;;;;;27.47;15.50;;;;;;;3.30;100.00;104091.34;5012283;28;20382;-78
2023/01/24 01:25:46;;;;;;;32.57;18.27;;;;;;;3.30;100.00;104088.81;5005481;28;20722;-78
2023/01/24 01:28:12;;;;;;;31.13;17.73;;;;;;;3.30;100.00;104088.81;5008593;28;20213;-78
2023/01/24 01:30:37;;;;;;;26.07;15.90;;;;;;;3.28;100.00;104082.72;5000134;28;20196;-78
2023/01/24 01:33:03;;;;;;;29.67;16.23;;;;;;;3.30;100.00;104076.16;5008552;28;20252;-78
2023/01/24 01:35:28;;;;;;;32.93;17.33;;;;;;;3.24;100.00;104069.59;5006305;28;20220;-77
2023/01/24 01:37:54;;;;;;;29.43;15.17;;;;;;;3.25;100.00;104074.81;5009596;28;20191;-79
2023/01/24 01:40:19;;;;;;;30.43;16.47;;;;;;;3.27;100.00;104080.91;5007011;28;20225;-79
2023/01/24 01:42:55;;;;;;;27.37;15.27;;;;;;;3.30;100.00;104070.19;5013810;28;20279;-78
2023/01/24 01:45:42;;;;;;;30.00;16.57;;;;;;;3.25;100.00;104069.75;5013506;28;20196;-78
2023/01/24 01:48:39;;;;;;;33.33;16.77;;;;;;;3.27;100.00;104078.38;4997336;28;20245;-79
2023/01/24 01:51:17;;;;;;;33.13;16.30;;;;;;;3.27;100.00;104080.91;5010825;28;20253;-78
2023/01/24 01:53:52;;;;;;;27.77;15.20;;;;;;;3.27;100.00;104083.44;5008699;28;20225;-78
2023/01/24 01:56:28;;;;;;;31.07;16.17;;;;;;;3.27;100.00;104064.84;5008364;28;20190;-78
2023/01/24 01:58:58;;;;;;;27.97;15.70;;;;;;;3.27;100.00;104067.38;4990055;28;20202;-79
2023/01/24 02:01:24;;;;;;;29.30;16.23;;;;;;;3.27;100.00;104065.72;5003119;28;20202;-78
2023/01/24 02:04:00;;;;;;;26.53;16.27;;;;;;;3.23;100.00;104063.66;5011558;28;20297;-78
2023/01/24 02:07:02;;;;;;;28.23;16.33;;;;;;;3.24;100.00;104060.38;5002167;28;20186;-79
2023/01/24 02:09:32;;;;;;;26.67;15.33;;;;;;;3.22;100.00;104069.44;5011590;28;20202;-78
2023/01/24 02:12:02;;;;;;;30.70;16.23;;;;;;;3.25;100.00;104069.75;5005773;28;20265;-79
2023/01/24 02:17:17;;;;;;;26.33;15.87;;;;;;;3.20;100.00;104060.81;5003661;28;20365;-77
2023/01/24 02:20:02;;;;;;;26.77;15.47;;;;;;;3.18;100.00;104062.28;4998516;28;20566;-78
2023/01/24 02:22:30;;;;;;;28.43;16.30;;;;;;;3.19;100.00;104064.09;5005463;28;20188;-78
2023/01/24 02:25:05;;;;;;;30.20;15.73;;;;;;;3.21;100.00;104062.59;5009976;28;20361;-77
2023/01/24 02:27:31;;;;;;;26.10;15.33;;;;;;;3.22;100.00;104068.56;5005656;28;20193;-77
2023/01/24 02:29:58;;;;;;;28.47;15.73;;;;;;;3.20;100.00;104057.38;5017179;28;20593;-77
2023/01/24 02:32:24;;;;;;;27.33;16.03;;;;;;;3.18;100.00;104069.88;5009635;28;20210;-78
2023/01/24 02:34:50;;;;;;;28.73;15.70;;;;;;;3.19;100.00;104066.63;5007214;28;20222;-78
2023/01/24 02:37:19;;;;;;;28.30;15.30;;;;;;;3.19;100.00;104071.69;5003658;28;20202;-77
2023/01/24 02:39:58;;;;;;;30.97;16.43;;;;;;;3.16;100.00;104072.97;5007817;28;20191;-79
2023/01/24 02:42:29;;;;;;;26.73;14.57;;;;;;;3.17;100.00;104074.81;5009273;28;20186;-78
2023/01/24 02:45:16;;;;;;;29.90;15.60;;;;;;;3.19;100.00;104065.72;5009492;28;20197;-79
2023/01/24 02:47:46;;;;;;;27.23;14.73;;;;;;;3.19;100.00;104065.72;5006171;28;20598;-80
2023/01/24 02:50:11;;;;;;;29.33;15.13;;;;;;;3.19;100.00;104063.19;5014824;28;20190;-78
2023/01/24 02:55:21;;;;;;;26.07;14.93;;;;;;;3.17;100.00;104067.22;5014806;28;20279;-79
2023/01/24 02:58:05;;;;;;;28.20;15.83;;;;;;;3.15;100.00;104071.19;5008810;28;20583;-79
2023/01/24 03:00:40;;;;;;;26.57;14.90;;;;;;;3.13;100.00;104077.75;5005342;28;20233;-79
2023/01/24 03:03:07;;;;;;;28.17;15.13;;;;;;;3.13;100.00;104081.16;5008994;28;20304;-79
2023/01/24 03:05:46;;;;;;;28.57;14.77;;;;;;;3.13;100.00;104080.28;4991722;28;20195;-79
2023/01/24 03:08:15;;;;;;;29.13;15.87;;;;;;;3.11;100.00;104077.59;5008476;28;20194;-78
2023/01/24 03:10:41;;;;;;;26.13;14.53;;;;;;;3.10;100.00;104082.50;5004726;28;20245;-79
2023/01/24 03:34:59;;;;;;;26.33;14.63;;;;;;;3.11;100.00;104092.78;5005700;28;20198;-78
2023/01/24 03:40:15;;;;;;;31.27;14.63;;;;;;;3.08;100.00;104089.94;5010080;28;20226;-77
2023/01/24 03:42:48;;;;;;;26.63;14.67;;;;;;;3.06;100.00;104095.56;4996688;28;20214;-78
2023/01/24 03:45:28;;;;;;;30.00;15.40;;;;;;;3.04;100.00;104094.53;5001380;28;20191;-78
2023/01/24 03:48:00;;;;;;;26.10;14.30;;;;;;;3.02;100.00;104099.44;5008473;28;20195;-78
2023/01/24 03:53:14;;;;;;;26.20;13.30;;;;;;;3.01;100.00;104104.34;5016389;28;20713;-78
2023/01/24 03:55:43;;;;;;;25.17;14.37;;;;;;;3.03;100.00;104098.69;5013769;28;20198;-78
2023/01/24 03:58:10;;;;;;;26.03;13.63;;;;;;;3.07;100.00;104100.81;5012579;28;20197;-78
2023/01/24 04:00:36;;;;;;;22.43;13.57;;;;;;;3.08;100.00;104097.53;5008539;28;20191;-80
2023/01/24 04:03:08;;;;;;;22.70;13.77;;;;;;;3.08;100.00;104097.53;5012467;28;20202;-80
2023/01/24 04:05:35;;;;;;;20.43;11.43;;;;;;;3.04;100.00;104084.41;5015942;28;20942;-79
2023/01/24 04:08:02;;;;;;;20.17;11.53;;;;;;;3.03;100.00;104090.22;5014595;28;20273;-78
2023/01/24 04:10:28;;;;;;;18.50;10.87;;;;;;;3.02;100.00;104084.25;5016476;28;20718;-79
2023/01/24 04:12:55;;;;;;;24.57;12.67;;;;;;;3.03;100.00;104087.69;5011858;28;20225;-80
2023/01/24 04:15:23;;;;;;;21.47;11.87;;;;;;;3.05;100.00;104089.66;5008079;28;20190;-78
2023/01/24 04:18:00;;;;;;;19.40;12.13;;;;;;;3.04;100.00;104095.41;5014941;28;20672;-79
2023/01/24 04:20:27;;;;;;;19.30;11.37;;;;;;;3.02;100.00;104101.06;5005723;28;20187;-79
2023/01/24 04:22:54;;;;;;;24.03;12.83;;;;;;;3.04;100.00;104102.13;5022093;28;20261;-78
2023/01/24 04:25:20;;;;;;;24.00;11.63;;;;;;;3.04;100.00;104092.88;5011446;28;20202;-79
2023/01/24 04:27:46;;;;;;;21.23;12.07;;;;;;;3.05;100.00;104091.25;5015433;28;20199;-79
2023/01/24 04:30:16;;;;;;;21.53;12.23;;;;;;;3.03;100.00;104096.16;5028955;28;20215;-80
2023/01/24 04:32:44;;;;;;;23.77;13.13;;;;;;;3.02;100.00;104099.44;5009214;28;20626;-78
2023/01/24 04:35:20;;;;;;;22.07;12.70;;;;;;;3.02;100.00;104103.59;5015747;28;20197;-78
2023/01/24 04:37:50;;;;;;;20.57;11.70;;;;;;;3.03;100.00;104101.22;5020350;28;20194;-78
2023/01/24 04:40:23;;;;;;;23.20;12.57;;;;;;;3.01;100.00;104110.31;5008627;28;20694;-78
2023/01/24 04:42:49;;;;;;;24.37;13.03;;;;;;;3.03;100.00;104103.75;5032853;28;20216;-78
2023/01/24 04:45:15;;;;;;;22.13;12.97;;;;;;;3.06;100.00;104108.22;5012078;28;20194;-78
2023/01/24 04:47:40;;;;;;;20.13;12.60;;;;;;;3.05;100.00;104107.34;5009321;28;20191;-78
2023/01/24 04:50:07;;;;;;;21.23;12.83;;;;;;;3.06;100.00;104105.69;5013258;28;20198;-79
2023/01/24 04:52:33;;;;;;;20.40;12.07;;;;;;;3.08;100.00;104112.72;5004942;28;20273;-78
2023/01/24 04:55:05;;;;;;;21.20;12.67;;;;;;;3.01;100.00;104110.31;5016272;28;20256;-79
2023/01/24 04:57:30;;;;;;;22.53;12.30;;;;;;;3.00;100.00;104105.09;5010578;28;20198;-79
2023/01/24 04:59:58;;;;;;;14.53;9.40;;;;;;;2.96;100.00;104105.50;5006283;28;20191;-79
2023/01/24 05:02:23;;;;;;;9.63;5.63;;;;;;;2.96;100.00;104111.47;5005588;28;20684;-78
2023/01/24 05:04:49;;;;;;;12.33;7.23;;;;;;;2.98;100.00;104102.41;5019429;28;20218;-79
2023/01/24 05:07:15;;;;;;;9.50;6.43;;;;;;;2.98;100.00;104101.50;4995219;28;20198;-78
2023/01/24 05:09:44;;;;;;;10.40;6.80;;;;;;;2.97;100.00;104110.75;5010895;28;20556;-78
2023/01/24 05:12:11;;;;;;;11.37;7.20;;;;;;;2.99;100.00;104104.19;5014065;28;20354;-79
2023/01/24 05:14:36;;;;;;;13.23;8.57;;;;;;;3.01;100.00;104105.25;5004196;28;20848;-79
2023/01/24 05:17:03;;;;;;;11.73;8.10;;;;;;;3.02;100.00;104106.13;5011557;28;20196;-79
2023/01/24 05:19:30;;;;;;;15.60;8.80;;;;;;;3.01;100.00;104106.88;5007329;28;20223;-78
2023/01/24 05:21:56;;;;;;;16.07;9.40;;;;;;;3.00;100.00;104102.56;5001598;28;20219;-79
2023/01/24 05:24:21;;;;;;;17.37;9.43;;;;;;;3.02;100.00;104104.50;5012351;28;20237;-79
2023/01/24 05:26:47;;;;;;;15.13;9.60;;;;;;;3.04;100.00;104104.66;5007185;28;20282;-78
2023/01/24 05:29:17;;;;;;;16.77;10.50;;;;;;;3.04;100.00;104110.59;5017672;28;20190;-78
2023/01/24 05:31:47;;;;;;;17.93;10.47;;;;;;;3.07;100.00;104108.41;4997816;28;20210;-79
2023/01/24 05:34:13;;;;;;;16.27;10.40;;;;;;;3.04;100.00;104102.13;5017453;28;20219;-79
2023/01/24 05:36:38;;;;;;;16.63;10.17;;;;;;;3.05;100.00;104102.31;4996983;28;20211;-79
2023/01/24 05:39:04;;;;;;;18.33;10.03;;;;;;;3.02;100.00;104103.59;5014333;28;20190;-80
2023/01/24 05:41:32;;;;;;;18.57;10.40;;;;;;;3.00;100.00;104111.06;5009729;28;20178;-79
2023/01/24 05:43:58;;;;;;;16.40;9.27;;;;;;;2.99;100.00;104101.66;5018219;28;20210;-80
2023/01/24 05:46:29;;;;;;;16.07;9.63;;;;;;;2.97;100.00;104105.69;5013990;28;20195;-79
2023/01/24 05:49:16;;;;;;;10.13;6.83;;;;;;;2.97;100.00;104110.75;5014566;28;20252;-78
2023/01/24 05:51:43;;;;;;;9.77;6.20;;;;;;;2.97;100.00;104104.75;5009247;28;20775;-79
2023/01/24 05:54:10;;;;;;;10.10;5.80;;;;;;;2.98;100.00;104112.53;5007815;28;20222;-78
2023/01/24 05:56:51;;;;;;;7.63;5.37;;;;;;;3.01;100.00;104117.00;5020657;28;20563;-80
2023/01/24 05:59:16;;;;;;;17.03;9.50;;;;;;;2.97;100.00;104113.28;5018474;28;20297;-79
2023/01/24 06:01:42;;;;;;;9.43;6.37;;;;;;;2.98;100.00;104104.03;5026783;28;20226;-78
2023/01/24 06:04:08;;;;;;;11.97;8.10;;;;;;;3.00;100.00;104110.16;5018246;28;20221;-79
2023/01/24 06:06:34;;;;;;;13.43;7.83;;;;;;;3.01;100.00;104105.25;5003380;28;20186;-79
2023/01/24 06:08:59;;;;;;;9.43;6.17;;;;;;;3.03;100.00;104110.47;5003608;28;20203;-79
2023/01/24 06:11:27;;;;;;;11.40;7.10;;;;;;;2.98;100.00;104109.09;5003254;28;20215;-78
2023/01/24 06:13:58;;;;;;;11.30;6.70;;;;;;;2.98;100.00;104119.19;5020128;28;20207;-79
2023/01/24 06:16:27;;;;;;;12.63;7.07;;;;;;;2.98;100.00;104115.06;5016803;28;20215;-78
2023/01/24 06:18:54;;;;;;;12.13;7.07;;;;;;;2.95;100.00;104117.25;4997092;28;20195;-80
2023/01/24 06:21:38;;;;;;;10.37;6.97;;;;;;;2.97;100.00;104120.84;5004683;28;20228;-79
2023/01/24 06:24:04;;;;;;;14.13;7.80;;;;;;;2.99;100.00;104119.38;5015473;28;20219;-79
2023/01/24 06:26:47;;;;;;;11.33;7.60;;;;;;;3.00;100.00;104117.75;5006323;28;20631;-79
2023/01/24 06:29:13;;;;;;;10.43;7.17;;;;;;;2.97;100.00;104125.00;5010211;28;20269;-79
2023/01/24 06:32:01;;;;;;;13.77;7.93;;;;;;;2.96;100.00;104116.53;4999748;28;20203;-79
2023/01/24 06:35:00;;;;;;;13.20;8.10;;;;;;;2.96;100.00;104113.09;5017155;28;20267;-78
2023/01/24 06:37:32;;;;;;;11.03;7.10;;;;;;;2.95;100.00;104132.44;5012626;28;20191;-79
2023/01/24 06:39:58;;;;;;;11.13;7.67;;;;;;;2.95;100.00;104126.50;5018982;28;20190;-79
2023/01/24 06:42:24;;;;;;;9.73;6.13;;;;;;;2.93;100.00;104136.47;5013418;28;20205;-80
2023/01/24 06:44:49;;;;;;;10.43;5.63;;;;;;;2.88;100.00;104134.19;5009854;28;20227;-79
2023/01/24 06:47:15;;;;;;;8.47;5.60;;;;;;;2.87;100.00;104140.00;5012661;28;20202;-80
2023/01/24 06:49:41;;;;;;;12.57;6.03;;;;;;;2.92;100.00;104136.31;5016215;28;20281;-80
2023/01/24 06:52:07;;;;;;;10.57;6.37;;;;;;;2.93;100.00;104141.53;5013829;28;20215;-79
2023/01/24 06:54:34;;;;;;;10.67;6.23;;;;;;;2.94;100.00;104140.78;5010619;28;20217;-79
2023/01/24 06:56:59;;;;;;;14.57;7.20;;;;;;;2.93;100.00;104133.03;5022706;28;20207;-78
2023/01/24 06:59:25;;;;;;;11.93;6.13;;;;;;;2.93;100.00;104135.56;5023310;28;20205;-79
2023/01/24 07:01:50;;;;;;;10.40;6.40;;;;;;;2.94;100.00;104135.72;5021121;28;20241;-78
2023/01/24 07:04:16;;;;;;;12.03;6.33;;;;;;;2.96;100.00;104140.94;5025243;28;20725;-78
2023/01/24 07:06:42;;;;;;;12.97;7.47;;;;;;;2.92;100.00;104137.22;5022243;28;20240;-79
2023/01/24 07:09:08;;;;;;;14.07;7.90;;;;;;;2.92;100.00;104138.81;5020985;28;20580;-79
2023/01/24 07:11:33;;;;;;;14.50;8.23;;;;;;;2.94;100.00;104142.44;5023088;28;20210;-79
2023/01/24 07:13:59;;;;;;;16.57;8.70;;;;;;;2.93;100.00;104145.69;5025740;28;20241;-79
2023/01/24 07:16:24;;;;;;;14.10;8.27;;;;;;;2.92;100.00;104147.34;5010770;28;20224;-79
2023/01/24 07:18:50;;;;;;;15.23;11.70;;;;;;;2.89;100.00;104152.06;5018509;28;20275;-78
2023/01/24 07:21:16;;;;;;;11.07;8.63;;;;;;;2.92;100.00;104154.91;5025229;28;20195;-79
2023/01/24 07:23:47;;;;;;;12.37;7.77;;;;;;;2.94;100.00;104162.69;5014389;28;20228;-79
2023/01/24 07:26:14;;;;;;;12.80;6.97;;;;;;;2.95;100.00;104167.00;5022980;28;20195;-77
2023/01/24 07:28:40;;;;;;;13.97;6.77;;;;;;;2.93;100.00;104168.44;5010660;28;20214;-79
2023/01/24 07:31:06;;;;;;;9.27;6.03;;;;;;;2.92;100.00;104169.19;5023781;28;20225;-77
2023/01/24 07:33:31;;;;;;;9.37;6.23;;;;;;;2.91;100.00;104175.00;5022185;28;20215;-77
2023/01/24 07:35:57;;;;;;;11.03;6.50;;;;;;;2.94;100.00;104173.66;5018188;28;20680;-77
2023/01/24 07:38:22;;;;;;;11.37;6.60;;;;;;;2.95;100.00;104180.53;5016136;28;20225;-80
2023/01/24 07:40:48;;;;;;;11.83;6.80;;;;;;;2.91;100.00;104175.91;5023653;28;20191;-79
2023/01/24 07:43:13;;;;;;;9.97;5.73;;;;;;;2.86;100.00;104179.59;5032112;28;20341;-78
2023/01/24 07:45:39;;;;;;;8.17;5.50;;;;;;;2.89;100.00;104184.97;5011241;28;20589;-79
2023/01/24 07:48:07;;;;;;;8.10;5.53;;;;;;;2.93;100.00;104189.59;5015896;28;20198;-80
2023/01/24 07:50:34;;;;;;;8.97;6.10;;;;;;;2.95;100.00;104189.75;5011436;28;20199;-79
2023/01/24 07:52:59;;;;;;;9.83;6.17;;;;;;;2.96;100.00;104189.03;5006552;28;20259;-79
2023/01/24 07:55:25;;;;;;;10.70;6.43;;;;;;;2.97;100.00;104185.75;5021397;28;20229;-80
2023/01/24 07:57:51;;;;;;;10.93;6.73;;;;;;;2.99;100.00;104190.22;5015903;28;20237;-80
2023/01/24 08:00:17;;;;;;;10.73;7.13;;;;;;;2.94;100.00;104186.31;5015045;28;20201;-78
2023/01/24 08:02:44;;;;;;;9.33;5.97;;;;;;;2.94;100.00;104193.03;5033980;28;20230;-78
2023/01/24 08:05:10;;;;;;;9.80;5.83;;;;;;;2.86;100.00;104191.34;5027440;28;20186;-78
2023/01/24 08:07:36;;;;;;;15.07;8.20;;;;;;;2.86;100.00;104199.84;5019833;28;20199;-79
2023/01/24 08:10:01;;;;;;;14.93;8.40;;;;;;;2.90;100.00;104194.34;5020250;28;20843;-80
2023/01/24 08:12:26;;;;;;;10.97;7.30;;;;;;;2.95;100.00;104197.34;5021876;28;20218;-78
2023/01/24 08:14:52;;;;;;;10.73;6.50;;;;;;;2.94;100.00;104195.56;5011538;28;20234;-78
2023/01/24 08:17:18;;;;;;;12.57;7.10;;;;;;;2.93;100.00;104203.88;5018453;28;20249;-80
2023/01/24 08:19:43;;;;;;;13.37;7.00;;;;;;;2.96;100.00;104199.16;5024610;28;20626;-80
2023/01/24 08:22:09;;;;;;;13.40;6.93;;;;;;;3.00;100.00;104203.78;5026211;28;20190;-80
2023/01/24 08:24:34;;;;;;;10.93;6.40;;;;;;;2.98;100.00;104211.22;5021118;28;20264;-79
2023/01/24 08:27:01;;;;;;;11.03;7.27;;;;;;;2.95;100.00;104198.22;5015960;28;20194;-79
2023/01/24 08:29:26;;;;;;;13.70;8.07;;;;;;;2.94;100.00;104193.91;5027817;28;20317;-80
2023/01/24 08:31:52;;;;;;;11.97;7.07;;;;;;;2.95;100.00;104198.22;4999880;28;20653;-80
2023/01/24 08:34:17;;;;;;;12.90;7.90;;;;;;;2.97;100.00;104194.25;5010862;28;20215;-80
2023/01/24 08:36:43;;;;;;;13.73;6.43;;;;;;;2.94;100.00;104203.16;5022748;28;20194;-79
2023/01/24 08:39:08;;;;;;;10.70;6.70;;;;;;;2.94;100.00;104204.03;5003910;28;20290;-79
2023/01/24 08:41:35;;;;;;;14.50;7.30;;;;;;;2.97;100.00;104209.44;5017879;28;20648;-79
2023/01/24 08:44:02;;;;;;;10.83;6.80;;;;;;;2.97;100.00;104209.44;5025217;28;20293;-79
2023/01/24 08:46:28;;;;;;;11.17;6.77;;;;;;;2.98;100.00;104205.25;5020854;28;20229;-79
2023/01/24 08:48:53;;;;;;;12.43;7.07;;;;;;;3.01;100.00;104210.63;5016149;28;20271;-79
2023/01/24 08:51:19;;;;;;;11.00;7.30;;;;;;;3.01;100.00;104209.00;5020937;28;20317;-78
2023/01/24 08:53:44;;;;;;;17.00;7.30;;;;;;;3.00;100.00;104196.19;5016858;28;20233;-78
2023/01/24 08:56:10;;;;;;;10.97;7.07;;;;;;;3.00;100.00;104206.31;5017088;28;20256;-79
2023/01/24 08:58:35;;;;;;;20.27;9.53;;;;;;;3.01;100.00;104200.50;5023574;28;20636;-79
2023/01/24 09:01:06;;;;;;;23.13;10.60;;;;;;;3.03;100.00;104207.53;5022357;28;21000;-78
2023/01/24 09:03:31;;;;;;;13.93;7.40;;;;;;;3.05;100.00;104207.69;5016415;28;20211;-78
2023/01/24 09:05:57;;;;;;;11.63;7.10;;;;;;;3.08;100.00;104219.00;5024847;28;20195;-79
2023/01/24 09:08:23;;;;;;;11.90;7.30;;;;;;;3.10;100.00;104206.53;5017738;28;20230;-78
2023/01/24 09:10:48;;;;;;;10.43;7.17;;;;;;;3.09;100.00;104204.75;5022213;28;20248;-79
2023/01/24 09:13:14;;;;;;;13.80;7.30;;;;;;;3.10;100.00;104207.44;5001391;28;20315;-78
2023/01/24 09:15:39;;;;;;;11.30;7.57;;;;;;;3.15;100.00;104212.94;5008509;28;20297;-79
2023/01/24 09:18:05;;;;;;;12.70;7.20;;;;;;;3.17;100.00;104206.44;5017446;28;20281;-79
2023/01/24 09:20:30;;;;;;;12.93;7.50;;;;;;;3.17;100.00;104208.97;5023143;28;20194;-78
2023/01/24 09:22:56;;;;;;;14.47;7.93;;;;;;;3.15;100.00;104216.41;5017541;28;20208;-78
2023/01/24 09:25:22;;;;;;;17.37;8.17;;;;;;;3.18;100.00;104213.28;5025883;28;20277;-79
2023/01/24 09:27:54;;;;;;;11.53;7.40;;;;;;;3.13;100.00;104214.44;5025438;28;20943;-78
2023/01/24 09:30:21;;;;;;;13.43;7.57;;;;;;;3.17;100.00;104216.56;5018706;28;20566;-79
2023/01/24 09:32:47;;;;;;;10.07;7.10;;;;;;;3.18;100.00;104219.22;5015312;28;20613;-78
2023/01/24 09:35:13;;;;;;;12.73;7.83;;;;;;;3.16;100.00;104220.72;5010672;28;20226;-79
2023/01/24 09:37:40;;;;;;;11.53;7.13;;;;;;;3.20;100.00;104227.88;5016558;28;20202;-77
2023/01/24 09:40:16;;;;;;;10.50;7.37;;;;;;;3.22;100.00;104223.84;5009366;28;20203;-79
2023/01/24 09:42:51;;;;;;;12.13;7.73;;;;;;;3.22;100.00;104222.97;5015291;28;20218;-79
2023/01/24 09:45:30;;;;;;;12.43;7.63;;;;;;;3.22;100.00;104220.44;5024222;28;20252;-79
2023/01/24 09:48:01;;;;;;;12.87;8.70;;;;;;;3.23;100.00;104224.78;5027879;28;20530;-78
2023/01/24 09:50:34;;;;;;;14.37;7.70;;;;;;;3.20;100.00;104220.28;5018740;28;20801;-78
2023/01/24 09:53:01;;;;;;;11.63;8.47;;;;;;;3.19;100.00;104226.09;5019499;28;20254;-78
2023/01/24 09:55:31;;;;;;;14.20;7.67;;;;;;;3.22;100.00;104225.50;5025994;28;20281;-78
2023/01/24 09:57:56;;;;;;;11.73;7.63;;;;;;;3.23;100.00;104222.25;5017484;28;20283;-77
2023/01/24 10:00:32;;;;;;;13.40;8.70;;;;;;;3.23;100.00;104225.69;5020027;28;20285;-78
2023/01/24 10:03:00;;;;;;;13.00;8.47;;;;;;;3.19;100.00;104218.50;5014319;28;20293;-77
2023/01/24 10:05:38;;;;;;;12.83;8.40;;;;;;;3.22;100.00;104218.78;5019808;28;20207;-79
2023/01/24 10:08:26;;;;;;;14.90;9.03;;;;;;;3.23;100.00;104219.72;5010256;28;20190;-78
2023/01/24 10:10:54;;;;;;;12.17;8.10;;;;;;;3.27;100.00;104224.34;5010767;28;20204;-77
2023/01/24 10:13:34;;;;;;;13.93;8.17;;;;;;;3.28;100.00;104224.50;5012783;28;20228;-78
2023/01/24 10:16:33;;;;;;;14.97;8.23;;;;;;;3.28;100.00;104219.44;5015448;28;20209;-78
2023/01/24 10:19:11;;;;;;;14.67;8.57;;;;;;;3.29;100.00;104216.16;5015474;28;20230;-79
2023/01/24 10:22:04;;;;;;;14.37;9.10;;;;;;;3.26;100.00;104223.44;5006869;28;20191;-77
2023/01/24 10:24:36;;;;;;;13.87;9.10;;;;;;;3.21;100.00;104219.53;4987246;28;20231;-77
2023/01/24 10:27:17;;;;;;;12.80;8.73;;;;;;;3.26;100.00;104220.91;5003745;28;20218;-74
2023/01/24 10:29:44;;;;;;;13.40;8.57;;;;;;;3.28;100.00;104213.47;5002612;28;20237;-76
2023/01/24 10:32:25;;;;;;;12.37;8.57;;;;;;;3.28;100.00;104208.41;5007837;28;20218;-76
2023/01/24 10:34:58;;;;;;;12.67;8.73;;;;;;;3.32;100.00;104208.88;4993218;28;20230;-77
2023/01/24 10:37:28;;;;;;;12.73;8.03;;;;;;;3.36;100.00;104213.50;5002835;28;20206;-76
2023/01/24 10:39:54;;;;;;;12.37;8.07;;;;;;;3.32;100.00;104210.53;5013043;28;20199;-75
2023/01/24 10:42:30;;;;;;;13.47;8.23;;;;;;;3.36;100.00;104202.50;5010902;28;20205;-76
2023/01/24 10:45:01;;;;;;;10.83;8.03;;;;;;;3.38;100.00;104196.84;5008398;28;20221;-76
2023/01/24 10:47:26;;;;;;;13.90;8.70;;;;;;;3.39;100.00;104195.19;5006317;28;20205;-76
2023/01/24 10:49:58;;;;;;;13.60;8.60;;;;;;;3.37;100.00;104194.16;5008394;28;20637;-76
2023/01/24 10:52:24;;;;;;;14.27;9.43;;;;;;;3.33;100.00;104198.03;5006782;28;20246;-75
2023/01/24 10:54:56;;;;;;;12.33;8.70;;;;;;;3.37;100.00;104192.53;5006721;28;20262;-76
2023/01/24 10:57:39;;;;;;;17.57;9.07;;;;;;;3.33;100.00;104182.84;4996521;28;20222;-76
2023/01/24 11:00:34;;;;;;;14.63;8.90;;;;;;;3.31;100.00;104171.63;5010001;28;20264;-76
2023/01/24 11:03:22;;;;;;;14.20;9.20;;;;;;;3.30;100.00;104169.84;5015792;28;20218;-76
2023/01/24 11:05:50;;;;;;;13.50;9.17;;;;;;;3.29;100.00;104165.53;4999790;28;20321;-77
2023/01/24 11:08:20;;;;;;;14.53;9.67;;;;;;;3.32;100.00;104168.34;5005114;28;20199;-77
2023/01/24 11:10:46;;;;;;;15.27;9.40;;;;;;;3.27;100.00;104167.00;5015782;28;20199;-77
2023/01/24 11:13:39;;;;;;;14.27;9.23;;;;;;;3.29;100.00;104170.59;5022617;28;20222;-77
2023/01/24 11:16:16;;;;;;;13.80;8.77;;;;;;;3.30;100.00;104168.94;5008149;28;20210;-76
2023/01/24 11:18:52;;;;;;;11.47;9.03;;;;;;;3.33;100.00;104164.19;5011623;28;20547;-77
2023/01/24 11:21:19;;;;;;;13.40;8.93;;;;;;;3.35;100.00;104163.63;5013108;28;20186;-78
2023/01/24 11:23:57;;;;;;;12.03;8.70;;;;;;;3.36;100.00;104165.41;4998726;28;20261;-77
2023/01/24 11:26:30;;;;;;;13.73;9.73;;;;;;;3.33;100.00;104157.50;5015830;28;20206;-77
2023/01/24 11:29:14;;;;;;;12.10;9.13;;;;;;;3.37;100.00;104164.69;5017445;28;20252;-78
2023/01/24 11:31:46;;;;;;;12.30;9.17;;;;;;;3.39;100.00;104172.41;5006126;28;20803;-78
2023/01/24 11:34:21;;;;;;;13.03;9.83;;;;;;;3.42;100.00;104162.59;5000430;28;20257;-78
2023/01/24 11:36:46;;;;;;;13.40;9.47;;;;;;;3.41;100.00;104170.94;5002817;28;20199;-76
2023/01/24 11:39:51;;;;;;;13.60;8.97;;;;;;;3.36;100.00;104159.47;5010662;28;20202;-77
2023/01/24 11:42:30;;;;;;;14.20;9.10;;;;;;;3.38;100.00;104163.94;5007458;28;20245;-76
2023/01/24 11:45:21;;;;;;;17.17;10.30;;;;;;;3.36;100.00;104159.47;5018582;28;20949;-76
2023/01/24 11:48:08;;;;;;;14.03;9.60;;;;;;;3.39;100.00;104162.28;5025614;28;20273;-77
2023/01/24 11:50:58;;;;;;;15.67;9.40;;;;;;;3.39;100.00;104152.16;5014492;28;20187;-76
2023/01/24 11:54:06;;;;;;;13.53;9.60;;;;;;;3.38;100.00;104143.69;5004719;28;20233;-75
2023/01/24 11:56:52;;;;;;;13.17;9.27;;;;;;;3.37;100.00;104156.19;5034278;28;20672;-75
2023/01/24 11:59:29;;;;;;;12.90;8.93;;;;;;;3.21;100.00;104157.88;5010706;28;20233;-76